sensor_id;sensor_type;location;lat;lon;timestamp;P1;durP1;ratioP1;P2;durP2;ratioP2
47737;SDS011;33502;47.182;27.506;2022-11-24T00:01:05;251.57;;;34.20;;
47737;SDS011;33502;47.182;27.506;2022-11-24T00:03:33;262.13;;;31.48;;
47737;SDS011;33502;47.182;27.506;2022-11-24T00:06:03;215.35;;;30.67;;
47737;SDS011;33502;47.182;27.506;2022-11-24T00:08:33;116.78;;;21.13;;
47737;SDS011;33502;47.182;27.506;2022-11-24T00:11:04;170.23;;;25.13;;
47737;SDS011;33502;47.182;27.506;2022-11-24T00:13:32;228.20;;;29.10;;
47737;SDS011;33502;47.182;27.506;2022-11-24T00:16:08;273.58;;;33.15;;
47737;SDS011;33502;47.182;27.506;2022-11-24T00:18:42;254.80;;;30.23;;
47737;SDS011;33502;47.182;27.506;2022-11-24T00:21:09;398.88;;;42.13;;
47737;SDS011;33502;47.182;27.506;2022-11-24T00:23:36;173.43;;;24.00;;
47737;SDS011;33502;47.182;27.506;2022-11-24T00:26:21;41.97;;;12.23;;
47737;SDS011;33502;47.182;27.506;2022-11-24T00:28:49;37.50;;;14.07;;
47737;SDS011;33502;47.182;27.506;2022-11-24T00:33:44;37.55;;;14.18;;
47737;SDS011;33502;47.182;27.506;2022-11-24T00:36:11;38.65;;;13.43;;
47737;SDS011;33502;47.182;27.506;2022-11-24T00:38:37;32.63;;;14.10;;
47737;SDS011;33502;47.182;27.506;2022-11-24T00:41:03;31.80;;;12.80;;
47737;SDS011;33502;47.182;27.506;2022-11-24T00:43:29;44.08;;;14.90;;
47737;SDS011;33502;47.182;27.506;2022-11-24T00:45:54;26.35;;;12.23;;
47737;SDS011;33502;47.182;27.506;2022-11-24T00:48:20;30.63;;;12.98;;
47737;SDS011;33502;47.182;27.506;2022-11-24T00:50:57;27.40;;;12.27;;
47737;SDS011;33502;47.182;27.506;2022-11-24T00:53:24;33.42;;;13.65;;
47737;SDS011;33502;47.182;27.506;2022-11-24T00:55:50;27.08;;;11.32;;
47737;SDS011;33502;47.182;27.506;2022-11-24T00:58:16;32.35;;;13.05;;
47737;SDS011;33502;47.182;27.506;2022-11-24T01:00:42;26.92;;;11.45;;
47737;SDS011;33502;47.182;27.506;2022-11-24T01:03:08;28.67;;;11.52;;
47737;SDS011;33502;47.182;27.506;2022-11-24T01:05:37;24.35;;;10.43;;
47737;SDS011;33502;47.182;27.506;2022-11-24T01:08:02;31.45;;;13.18;;
47737;SDS011;33502;47.182;27.506;2022-11-24T01:10:29;26.52;;;12.68;;
47737;SDS011;33502;47.182;27.506;2022-11-24T01:12:55;31.73;;;13.13;;
47737;SDS011;33502;47.182;27.506;2022-11-24T01:15:20;27.60;;;11.98;;
47737;SDS011;33502;47.182;27.506;2022-11-24T01:17:46;28.48;;;12.95;;
47737;SDS011;33502;47.182;27.506;2022-11-24T01:20:12;32.90;;;12.40;;
47737;SDS011;33502;47.182;27.506;2022-11-24T01:22:38;26.55;;;11.65;;
47737;SDS011;33502;47.182;27.506;2022-11-24T01:25:04;31.02;;;14.02;;
47737;SDS011;33502;47.182;27.506;2022-11-24T01:27:31;34.90;;;13.18;;
47737;SDS011;33502;47.182;27.506;2022-11-24T01:29:57;28.80;;;12.13;;
47737;SDS011;33502;47.182;27.506;2022-11-24T01:32:22;32.67;;;12.60;;
47737;SDS011;33502;47.182;27.506;2022-11-24T01:34:48;38.97;;;12.23;;
47737;SDS011;33502;47.182;27.506;2022-11-24T01:37:14;31.92;;;12.25;;
47737;SDS011;33502;47.182;27.506;2022-11-24T01:39:40;32.22;;;12.90;;
47737;SDS011;33502;47.182;27.506;2022-11-24T01:42:06;35.83;;;12.60;;
47737;SDS011;33502;47.182;27.506;2022-11-24T01:44:32;34.85;;;13.30;;
47737;SDS011;33502;47.182;27.506;2022-11-24T01:49:53;30.85;;;11.70;;
47737;SDS011;33502;47.182;27.506;2022-11-24T01:55:05;34.75;;;11.77;;
47737;SDS011;33502;47.182;27.506;2022-11-24T01:57:35;34.55;;;11.65;;
47737;SDS011;33502;47.182;27.506;2022-11-24T02:00:09;30.88;;;12.15;;
47737;SDS011;33502;47.182;27.506;2022-11-24T02:02:40;28.17;;;10.18;;
47737;SDS011;33502;47.182;27.506;2022-11-24T02:05:09;25.48;;;9.25;;
47737;SDS011;33502;47.182;27.506;2022-11-24T02:07:51;25.80;;;10.57;;
47737;SDS011;33502;47.182;27.506;2022-11-24T02:10:18;26.40;;;10.38;;
47737;SDS011;33502;47.182;27.506;2022-11-24T02:12:45;28.42;;;9.75;;
47737;SDS011;33502;47.182;27.506;2022-11-24T02:15:13;24.67;;;9.95;;
47737;SDS011;33502;47.182;27.506;2022-11-24T02:17:41;37.22;;;11.82;;
47737;SDS011;33502;47.182;27.506;2022-11-24T02:20:07;31.27;;;12.50;;
47737;SDS011;33502;47.182;27.506;2022-11-24T02:28:11;31.38;;;11.90;;
47737;SDS011;33502;47.182;27.506;2022-11-24T02:30:40;35.05;;;12.68;;
47737;SDS011;33502;47.182;27.506;2022-11-24T02:33:06;30.92;;;11.32;;
47737;SDS011;33502;47.182;27.506;2022-11-24T02:35:32;35.60;;;13.13;;
47737;SDS011;33502;47.182;27.506;2022-11-24T02:37:58;35.83;;;14.15;;
47737;SDS011;33502;47.182;27.506;2022-11-24T02:40:24;40.60;;;14.95;;
47737;SDS011;33502;47.182;27.506;2022-11-24T02:42:53;39.92;;;14.27;;
47737;SDS011;33502;47.182;27.506;2022-11-24T02:45:26;35.20;;;13.20;;
47737;SDS011;33502;47.182;27.506;2022-11-24T02:47:53;36.28;;;13.88;;
47737;SDS011;33502;47.182;27.506;2022-11-24T02:50:19;37.33;;;14.60;;
47737;SDS011;33502;47.182;27.506;2022-11-24T02:52:45;37.33;;;13.18;;
47737;SDS011;33502;47.182;27.506;2022-11-24T02:55:10;31.98;;;12.40;;
47737;SDS011;33502;47.182;27.506;2022-11-24T02:57:37;29.48;;;13.88;;
47737;SDS011;33502;47.182;27.506;2022-11-24T03:00:03;29.23;;;13.10;;
47737;SDS011;33502;47.182;27.506;2022-11-24T03:02:30;29.73;;;13.82;;
47737;SDS011;33502;47.182;27.506;2022-11-24T03:04:55;38.45;;;14.52;;
47737;SDS011;33502;47.182;27.506;2022-11-24T03:07:21;29.13;;;14.27;;
47737;SDS011;33502;47.182;27.506;2022-11-24T03:09:47;35.75;;;14.40;;
47737;SDS011;33502;47.182;27.506;2022-11-24T03:12:13;28.83;;;13.85;;
47737;SDS011;33502;47.182;27.506;2022-11-24T03:14:38;34.78;;;14.48;;
47737;SDS011;33502;47.182;27.506;2022-11-24T03:17:04;31.98;;;13.32;;
47737;SDS011;33502;47.182;27.506;2022-11-24T03:19:31;33.05;;;14.93;;
47737;SDS011;33502;47.182;27.506;2022-11-24T03:21:57;27.67;;;13.18;;
47737;SDS011;33502;47.182;27.506;2022-11-24T03:24:23;31.60;;;13.18;;
47737;SDS011;33502;47.182;27.506;2022-11-24T03:26:49;32.13;;;13.88;;
47737;SDS011;33502;47.182;27.506;2022-11-24T03:29:15;30.02;;;13.73;;
47737;SDS011;33502;47.182;27.506;2022-11-24T03:31:41;34.72;;;13.77;;
47737;SDS011;33502;47.182;27.506;2022-11-24T03:34:06;30.95;;;13.35;;
47737;SDS011;33502;47.182;27.506;2022-11-24T03:36:32;31.13;;;14.30;;
47737;SDS011;33502;47.182;27.506;2022-11-24T03:38:58;31.23;;;12.35;;
47737;SDS011;33502;47.182;27.506;2022-11-24T03:41:24;27.85;;;12.95;;
47737;SDS011;33502;47.182;27.506;2022-11-24T03:43:50;29.75;;;13.10;;
47737;SDS011;33502;47.182;27.506;2022-11-24T03:46:16;26.40;;;12.75;;
47737;SDS011;33502;47.182;27.506;2022-11-24T03:48:42;26.50;;;12.40;;
47737;SDS011;33502;47.182;27.506;2022-11-24T03:51:08;32.88;;;14.18;;
47737;SDS011;33502;47.182;27.506;2022-11-24T03:53:34;32.67;;;13.85;;
47737;SDS011;33502;47.182;27.506;2022-11-24T03:56:00;29.25;;;13.75;;
47737;SDS011;33502;47.182;27.506;2022-11-24T03:58:26;26.60;;;13.32;;
47737;SDS011;33502;47.182;27.506;2022-11-24T04:00:53;27.67;;;12.63;;
47737;SDS011;33502;47.182;27.506;2022-11-24T04:03:20;25.33;;;12.35;;
47737;SDS011;33502;47.182;27.506;2022-11-24T04:05:46;27.17;;;12.93;;
47737;SDS011;33502;47.182;27.506;2022-11-24T04:08:12;29.42;;;12.48;;
47737;SDS011;33502;47.182;27.506;2022-11-24T04:10:39;23.90;;;12.35;;
47737;SDS011;33502;47.182;27.506;2022-11-24T04:13:12;24.77;;;11.93;;
47737;SDS011;33502;47.182;27.506;2022-11-24T04:15:40;27.45;;;11.30;;
47737;SDS011;33502;47.182;27.506;2022-11-24T04:18:07;26.65;;;12.38;;
47737;SDS011;33502;47.182;27.506;2022-11-24T04:20:33;28.70;;;12.80;;
47737;SDS011;33502;47.182;27.506;2022-11-24T04:22:59;32.25;;;13.13;;
47737;SDS011;33502;47.182;27.506;2022-11-24T04:25:25;29.50;;;12.63;;
47737;SDS011;33502;47.182;27.506;2022-11-24T04:27:52;28.23;;;12.68;;
47737;SDS011;33502;47.182;27.506;2022-11-24T04:30:18;30.30;;;11.98;;
47737;SDS011;33502;47.182;27.506;2022-11-24T04:32:46;32.90;;;13.63;;
47737;SDS011;33502;47.182;27.506;2022-11-24T04:35:12;33.45;;;13.95;;
47737;SDS011;33502;47.182;27.506;2022-11-24T04:37:38;35.75;;;15.45;;
47737;SDS011;33502;47.182;27.506;2022-11-24T04:40:05;34.47;;;15.13;;
47737;SDS011;33502;47.182;27.506;2022-11-24T04:42:32;37.38;;;15.02;;
47737;SDS011;33502;47.182;27.506;2022-11-24T04:44:57;34.25;;;14.52;;
47737;SDS011;33502;47.182;27.506;2022-11-24T04:47:24;39.72;;;15.23;;
47737;SDS011;33502;47.182;27.506;2022-11-24T04:49:51;30.25;;;12.75;;
47737;SDS011;33502;47.182;27.506;2022-11-24T04:52:17;37.92;;;14.77;;
47737;SDS011;33502;47.182;27.506;2022-11-24T04:54:45;41.42;;;15.80;;
47737;SDS011;33502;47.182;27.506;2022-11-24T04:57:17;47.05;;;16.58;;
47737;SDS011;33502;47.182;27.506;2022-11-24T04:59:45;43.30;;;16.65;;
47737;SDS011;33502;47.182;27.506;2022-11-24T05:02:11;44.95;;;17.27;;
47737;SDS011;33502;47.182;27.506;2022-11-24T05:04:37;51.08;;;18.33;;
47737;SDS011;33502;47.182;27.506;2022-11-24T05:07:03;46.72;;;19.45;;
47737;SDS011;33502;47.182;27.506;2022-11-24T05:09:29;56.72;;;20.23;;
47737;SDS011;33502;47.182;27.506;2022-11-24T05:11:55;62.03;;;20.25;;
47737;SDS011;33502;47.182;27.506;2022-11-24T05:14:21;58.45;;;20.23;;
47737;SDS011;33502;47.182;27.506;2022-11-24T05:16:46;52.58;;;20.45;;
47737;SDS011;33502;47.182;27.506;2022-11-24T05:19:13;61.30;;;20.65;;
47737;SDS011;33502;47.182;27.506;2022-11-24T05:21:39;57.40;;;20.33;;
47737;SDS011;33502;47.182;27.506;2022-11-24T05:24:04;66.07;;;22.27;;
47737;SDS011;33502;47.182;27.506;2022-11-24T05:26:30;59.22;;;21.58;;
47737;SDS011;33502;47.182;27.506;2022-11-24T05:28:56;85.32;;;23.95;;
47737;SDS011;33502;47.182;27.506;2022-11-24T05:31:22;73.57;;;24.92;;
47737;SDS011;33502;47.182;27.506;2022-11-24T05:33:48;66.38;;;22.17;;
47737;SDS011;33502;47.182;27.506;2022-11-24T05:36:13;60.53;;;19.75;;
47737;SDS011;33502;47.182;27.506;2022-11-24T05:38:58;65.85;;;19.98;;
47737;SDS011;33502;47.182;27.506;2022-11-24T05:41:24;53.88;;;19.77;;
47737;SDS011;33502;47.182;27.506;2022-11-24T05:43:50;52.25;;;18.75;;
47737;SDS011;33502;47.182;27.506;2022-11-24T05:46:15;57.95;;;17.58;;
47737;SDS011;33502;47.182;27.506;2022-11-24T05:48:41;52.00;;;18.00;;
47737;SDS011;33502;47.182;27.506;2022-11-24T05:51:07;55.58;;;18.20;;
47737;SDS011;33502;47.182;27.506;2022-11-24T05:53:32;48.88;;;16.40;;
47737;SDS011;33502;47.182;27.506;2022-11-24T05:56:01;50.70;;;17.48;;
47737;SDS011;33502;47.182;27.506;2022-11-24T05:58:28;48.63;;;18.10;;
47737;SDS011;33502;47.182;27.506;2022-11-24T06:00:54;61.45;;;19.30;;
47737;SDS011;33502;47.182;27.506;2022-11-24T06:03:19;68.93;;;19.17;;
47737;SDS011;33502;47.182;27.506;2022-11-24T06:05:45;65.28;;;19.13;;
47737;SDS011;33502;47.182;27.506;2022-11-24T06:08:12;61.67;;;17.35;;
47737;SDS011;33502;47.182;27.506;2022-11-24T06:10:38;54.20;;;18.08;;
47737;SDS011;33502;47.182;27.506;2022-11-24T06:13:06;51.55;;;18.20;;
47737;SDS011;33502;47.182;27.506;2022-11-24T06:15:33;63.90;;;18.27;;
47737;SDS011;33502;47.182;27.506;2022-11-24T06:18:01;67.20;;;18.85;;
47737;SDS011;33502;47.182;27.506;2022-11-24T06:20:26;66.78;;;21.67;;
47737;SDS011;33502;47.182;27.506;2022-11-24T06:22:52;68.47;;;21.13;;
47737;SDS011;33502;47.182;27.506;2022-11-24T06:25:18;81.53;;;22.42;;
47737;SDS011;33502;47.182;27.506;2022-11-24T06:27:44;33.75;;;14.48;;
47737;SDS011;33502;47.182;27.506;2022-11-24T06:30:10;59.95;;;18.55;;
47737;SDS011;33502;47.182;27.506;2022-11-24T06:32:36;67.82;;;19.10;;
47737;SDS011;33502;47.182;27.506;2022-11-24T06:35:04;61.70;;;19.73;;
47737;SDS011;33502;47.182;27.506;2022-11-24T06:37:30;44.20;;;16.48;;
47737;SDS011;33502;47.182;27.506;2022-11-24T06:39:56;53.13;;;17.35;;
47737;SDS011;33502;47.182;27.506;2022-11-24T06:42:22;60.40;;;18.27;;
47737;SDS011;33502;47.182;27.506;2022-11-24T06:44:47;38.03;;;14.15;;
47737;SDS011;33502;47.182;27.506;2022-11-24T06:47:13;57.10;;;17.63;;
47737;SDS011;33502;47.182;27.506;2022-11-24T06:49:39;42.55;;;14.20;;
47737;SDS011;33502;47.182;27.506;2022-11-24T06:52:05;36.15;;;12.68;;
47737;SDS011;33502;47.182;27.506;2022-11-24T06:54:31;39.35;;;14.73;;
47737;SDS011;33502;47.182;27.506;2022-11-24T06:56:57;34.90;;;14.10;;
47737;SDS011;33502;47.182;27.506;2022-11-24T06:59:24;32.03;;;12.23;;
47737;SDS011;33502;47.182;27.506;2022-11-24T07:01:51;38.45;;;13.13;;
47737;SDS011;33502;47.182;27.506;2022-11-24T07:04:17;36.67;;;11.75;;
47737;SDS011;33502;47.182;27.506;2022-11-24T07:06:43;33.63;;;14.75;;
47737;SDS011;33502;47.182;27.506;2022-11-24T07:09:09;33.13;;;14.18;;
47737;SDS011;33502;47.182;27.506;2022-11-24T07:11:36;38.42;;;13.18;;
47737;SDS011;33502;47.182;27.506;2022-11-24T07:14:03;37.08;;;13.82;;
47737;SDS011;33502;47.182;27.506;2022-11-24T07:16:29;40.67;;;13.38;;
47737;SDS011;33502;47.182;27.506;2022-11-24T07:18:55;35.25;;;11.27;;
47737;SDS011;33502;47.182;27.506;2022-11-24T07:21:22;36.13;;;12.63;;
47737;SDS011;33502;47.182;27.506;2022-11-24T07:23:53;59.65;;;22.90;;
47737;SDS011;33502;47.182;27.506;2022-11-24T07:26:21;35.45;;;12.13;;
47737;SDS011;33502;47.182;27.506;2022-11-24T07:28:47;32.05;;;13.45;;
47737;SDS011;33502;47.182;27.506;2022-11-24T07:31:14;48.75;;;13.18;;
47737;SDS011;33502;47.182;27.506;2022-11-24T07:33:46;46.88;;;15.13;;
47737;SDS011;33502;47.182;27.506;2022-11-24T07:36:13;67.43;;;16.65;;
47737;SDS011;33502;47.182;27.506;2022-11-24T07:38:39;73.95;;;20.63;;
47737;SDS011;33502;47.182;27.506;2022-11-24T07:41:06;66.00;;;15.75;;
47737;SDS011;33502;47.182;27.506;2022-11-24T07:43:34;45.17;;;14.07;;
47737;SDS011;33502;47.182;27.506;2022-11-24T07:46:01;58.50;;;16.13;;
47737;SDS011;33502;47.182;27.506;2022-11-24T07:48:28;50.38;;;14.35;;
47737;SDS011;33502;47.182;27.506;2022-11-24T07:50:53;65.47;;;14.40;;
47737;SDS011;33502;47.182;27.506;2022-11-24T07:53:19;50.58;;;14.40;;
47737;SDS011;33502;47.182;27.506;2022-11-24T07:55:55;30.95;;;11.77;;
47737;SDS011;33502;47.182;27.506;2022-11-24T07:58:22;43.45;;;13.13;;
47737;SDS011;33502;47.182;27.506;2022-11-24T08:00:48;38.03;;;12.07;;
47737;SDS011;33502;47.182;27.506;2022-11-24T08:03:14;47.97;;;11.57;;
47737;SDS011;33502;47.182;27.506;2022-11-24T08:05:40;43.72;;;11.20;;
47737;SDS011;33502;47.182;27.506;2022-11-24T08:08:06;47.90;;;13.38;;
47737;SDS011;33502;47.182;27.506;2022-11-24T08:10:31;47.17;;;13.82;;
47737;SDS011;33502;47.182;27.506;2022-11-24T08:13:00;51.67;;;15.50;;
47737;SDS011;33502;47.182;27.506;2022-11-24T08:15:26;33.17;;;15.40;;
47737;SDS011;33502;47.182;27.506;2022-11-24T08:17:52;50.47;;;16.95;;
47737;SDS011;33502;47.182;27.506;2022-11-24T08:20:17;56.90;;;18.25;;
47737;SDS011;33502;47.182;27.506;2022-11-24T08:22:43;54.05;;;17.27;;
47737;SDS011;33502;47.182;27.506;2022-11-24T08:25:09;33.75;;;12.27;;
47737;SDS011;33502;47.182;27.506;2022-11-24T08:27:35;52.55;;;12.35;;
47737;SDS011;33502;47.182;27.506;2022-11-24T08:30:01;34.45;;;11.73;;
47737;SDS011;33502;47.182;27.506;2022-11-24T08:32:27;34.78;;;11.85;;
47737;SDS011;33502;47.182;27.506;2022-11-24T08:34:52;29.95;;;11.55;;
47737;SDS011;33502;47.182;27.506;2022-11-24T08:37:18;37.72;;;12.63;;
47737;SDS011;33502;47.182;27.506;2022-11-24T08:39:44;38.45;;;13.27;;
47737;SDS011;33502;47.182;27.506;2022-11-24T08:42:10;41.83;;;13.52;;
47737;SDS011;33502;47.182;27.506;2022-11-24T08:44:35;43.25;;;11.93;;
47737;SDS011;33502;47.182;27.506;2022-11-24T08:47:01;35.25;;;11.63;;
47737;SDS011;33502;47.182;27.506;2022-11-24T08:49:27;30.25;;;10.90;;
47737;SDS011;33502;47.182;27.506;2022-11-24T08:51:52;26.45;;;10.27;;
47737;SDS011;33502;47.182;27.506;2022-11-24T08:54:21;28.20;;;12.95;;
47737;SDS011;33502;47.182;27.506;2022-11-24T08:56:48;27.58;;;10.43;;
47737;SDS011;33502;47.182;27.506;2022-11-24T08:59:14;29.83;;;11.02;;
47737;SDS011;33502;47.182;27.506;2022-11-24T09:01:39;32.05;;;10.93;;
47737;SDS011;33502;47.182;27.506;2022-11-24T09:04:06;63.60;;;31.40;;
47737;SDS011;33502;47.182;27.506;2022-11-24T09:06:31;32.92;;;13.13;;
47737;SDS011;33502;47.182;27.506;2022-11-24T09:08:58;42.75;;;12.30;;
47737;SDS011;33502;47.182;27.506;2022-11-24T09:11:24;30.50;;;10.40;;
47737;SDS011;33502;47.182;27.506;2022-11-24T09:13:51;26.42;;;9.10;;
47737;SDS011;33502;47.182;27.506;2022-11-24T09:16:22;23.33;;;9.10;;
47737;SDS011;33502;47.182;27.506;2022-11-24T09:18:53;19.80;;;8.85;;
47737;SDS011;33502;47.182;27.506;2022-11-24T09:21:27;19.35;;;9.35;;
47737;SDS011;33502;47.182;27.506;2022-11-24T09:23:53;14.30;;;6.53;;
47737;SDS011;33502;47.182;27.506;2022-11-24T09:26:21;13.05;;;6.45;;
47737;SDS011;33502;47.182;27.506;2022-11-24T09:28:54;16.17;;;6.75;;
47737;SDS011;33502;47.182;27.506;2022-11-24T09:31:23;16.98;;;7.63;;
47737;SDS011;33502;47.182;27.506;2022-11-24T09:33:51;12.00;;;6.55;;
47737;SDS011;33502;47.182;27.506;2022-11-24T09:36:18;12.75;;;5.78;;
47737;SDS011;33502;47.182;27.506;2022-11-24T09:38:44;9.82;;;5.35;;
47737;SDS011;33502;47.182;27.506;2022-11-24T09:43:49;15.77;;;7.57;;
47737;SDS011;33502;47.182;27.506;2022-11-24T09:49:41;14.80;;;6.53;;
47737;SDS011;33502;47.182;27.506;2022-11-24T10:00:32;11.82;;;6.25;;
47737;SDS011;33502;47.182;27.506;2022-11-24T10:02:58;12.73;;;6.93;;
47737;SDS011;33502;47.182;27.506;2022-11-24T10:05:24;12.60;;;6.90;;
47737;SDS011;33502;47.182;27.506;2022-11-24T10:08:07;11.65;;;6.05;;
47737;SDS011;33502;47.182;27.506;2022-11-24T10:10:57;11.85;;;5.82;;
47737;SDS011;33502;47.182;27.506;2022-11-24T10:16:14;10.70;;;5.90;;
47737;SDS011;33502;47.182;27.506;2022-11-24T10:27:27;11.13;;;5.55;;
47737;SDS011;33502;47.182;27.506;2022-11-24T10:29:57;11.00;;;5.32;;
47737;SDS011;33502;47.182;27.506;2022-11-24T10:32:28;9.75;;;5.53;;
47737;SDS011;33502;47.182;27.506;2022-11-24T10:35:04;9.30;;;4.85;;
47737;SDS011;33502;47.182;27.506;2022-11-24T10:37:42;9.38;;;5.13;;
47737;SDS011;33502;47.182;27.506;2022-11-24T10:40:21;11.10;;;6.43;;
47737;SDS011;33502;47.182;27.506;2022-11-24T10:42:52;15.40;;;7.95;;
47737;SDS011;33502;47.182;27.506;2022-11-24T10:45:19;13.80;;;7.88;;
47737;SDS011;33502;47.182;27.506;2022-11-24T10:47:46;19.92;;;10.05;;
47737;SDS011;33502;47.182;27.506;2022-11-24T10:58:24;21.98;;;9.95;;
47737;SDS011;33502;47.182;27.506;2022-11-24T11:00:54;24.17;;;10.30;;
47737;SDS011;33502;47.182;27.506;2022-11-24T11:03:22;21.45;;;10.20;;
47737;SDS011;33502;47.182;27.506;2022-11-24T11:05:54;25.27;;;12.10;;
47737;SDS011;33502;47.182;27.506;2022-11-24T11:08:26;27.35;;;11.70;;
47737;SDS011;33502;47.182;27.506;2022-11-24T11:11:13;22.05;;;9.85;;
47737;SDS011;33502;47.182;27.506;2022-11-24T11:13:45;27.77;;;10.88;;
47737;SDS011;33502;47.182;27.506;2022-11-24T11:16:41;26.35;;;10.80;;
47737;SDS011;33502;47.182;27.506;2022-11-24T11:24:34;25.33;;;10.82;;
47737;SDS011;33502;47.182;27.506;2022-11-24T11:27:03;30.10;;;11.95;;
47737;SDS011;33502;47.182;27.506;2022-11-24T11:29:49;29.38;;;11.32;;
47737;SDS011;33502;47.182;27.506;2022-11-24T11:34:49;28.17;;;11.65;;
47737;SDS011;33502;47.182;27.506;2022-11-24T11:37:17;22.08;;;9.38;;
47737;SDS011;33502;47.182;27.506;2022-11-24T11:39:45;24.77;;;11.20;;
47737;SDS011;33502;47.182;27.506;2022-11-24T11:44:54;25.23;;;11.75;;
47737;SDS011;33502;47.182;27.506;2022-11-24T11:50:13;23.52;;;9.90;;
47737;SDS011;33502;47.182;27.506;2022-11-24T12:00:28;29.90;;;12.88;;
47737;SDS011;33502;47.182;27.506;2022-11-24T12:09:31;29.80;;;12.45;;
47737;SDS011;33502;47.182;27.506;2022-11-24T12:20:02;46.25;;;13.32;;
47737;SDS011;33502;47.182;27.506;2022-11-24T12:25:45;24.08;;;10.85;;
47737;SDS011;33502;47.182;27.506;2022-11-24T12:28:25;30.77;;;11.38;;
47737;SDS011;33502;47.182;27.506;2022-11-24T12:31:12;37.58;;;10.75;;
47737;SDS011;33502;47.182;27.506;2022-11-24T12:36:43;32.33;;;12.07;;
47737;SDS011;33502;47.182;27.506;2022-11-24T12:44:40;61.08;;;20.58;;
47737;SDS011;33502;47.182;27.506;2022-11-24T12:52:43;34.28;;;13.57;;
47737;SDS011;33502;47.182;27.506;2022-11-24T12:55:19;38.05;;;12.50;;
47737;SDS011;33502;47.182;27.506;2022-11-24T13:07:10;49.92;;;17.63;;
47737;SDS011;33502;47.182;27.506;2022-11-24T13:09:16;38.50;;;10.93;;
47737;SDS011;33502;47.182;27.506;2022-11-24T13:11:43;33.42;;;10.65;;
47737;SDS011;33502;47.182;27.506;2022-11-24T13:14:20;57.28;;;16.98;;
47737;SDS011;33502;47.182;27.506;2022-11-24T13:17:30;54.63;;;12.73;;
47737;SDS011;33502;47.182;27.506;2022-11-24T13:19:50;49.67;;;13.13;;
47737;SDS011;33502;47.182;27.506;2022-11-24T13:22:23;87.10;;;13.95;;
47737;SDS011;33502;47.182;27.506;2022-11-24T13:28:02;52.88;;;14.77;;
47737;SDS011;33502;47.182;27.506;2022-11-24T13:33:00;154.65;;;21.38;;
47737;SDS011;33502;47.182;27.506;2022-11-24T13:35:36;108.85;;;19.30;;
47737;SDS011;33502;47.182;27.506;2022-11-24T13:38:02;143.98;;;19.08;;
47737;SDS011;33502;47.182;27.506;2022-11-24T13:40:51;170.05;;;22.20;;
47737;SDS011;33502;47.182;27.506;2022-11-24T13:43:18;149.27;;;25.15;;
47737;SDS011;33502;47.182;27.506;2022-11-24T13:56:06;152.20;;;23.00;;
47737;SDS011;33502;47.182;27.506;2022-11-24T13:58:48;114.45;;;19.88;;
47737;SDS011;33502;47.182;27.506;2022-11-24T14:04:02;97.38;;;16.50;;
47737;SDS011;33502;47.182;27.506;2022-11-24T14:12:09;129.10;;;22.10;;
47737;SDS011;33502;47.182;27.506;2022-11-24T14:14:37;117.18;;;20.85;;
47737;SDS011;33502;47.182;27.506;2022-11-24T14:19:38;102.15;;;24.35;;
47737;SDS011;33502;47.182;27.506;2022-11-24T14:22:04;84.07;;;18.50;;
47737;SDS011;33502;47.182;27.506;2022-11-24T14:24:31;87.32;;;19.40;;
47737;SDS011;33502;47.182;27.506;2022-11-24T14:26:57;75.07;;;19.23;;
47737;SDS011;33502;47.182;27.506;2022-11-24T14:29:25;69.25;;;19.83;;
47737;SDS011;33502;47.182;27.506;2022-11-24T14:31:58;82.43;;;21.60;;
47737;SDS011;33502;47.182;27.506;2022-11-24T14:34:26;68.88;;;19.77;;
47737;SDS011;33502;47.182;27.506;2022-11-24T14:36:59;90.75;;;23.20;;
47737;SDS011;33502;47.182;27.506;2022-11-24T14:39:26;88.13;;;20.15;;
47737;SDS011;33502;47.182;27.506;2022-11-24T14:42:05;107.53;;;24.05;;
47737;SDS011;33502;47.182;27.506;2022-11-24T14:47:11;115.93;;;22.65;;
47737;SDS011;33502;47.182;27.506;2022-11-24T14:50:04;122.55;;;19.77;;
47737;SDS011;33502;47.182;27.506;2022-11-24T14:52:40;86.68;;;19.17;;
47737;SDS011;33502;47.182;27.506;2022-11-24T14:55:21;66.75;;;18.38;;
47737;SDS011;33502;47.182;27.506;2022-11-24T14:57:48;128.93;;;20.60;;
47737;SDS011;33502;47.182;27.506;2022-11-24T15:00:19;84.53;;;19.15;;
47737;SDS011;33502;47.182;27.506;2022-11-24T15:03:18;72.95;;;17.63;;
47737;SDS011;33502;47.182;27.506;2022-11-24T15:05:56;50.38;;;14.38;;
47737;SDS011;33502;47.182;27.506;2022-11-24T15:08:25;49.38;;;14.38;;
47737;SDS011;33502;47.182;27.506;2022-11-24T15:11:00;43.65;;;13.30;;
47737;SDS011;33502;47.182;27.506;2022-11-24T15:13:27;57.15;;;15.60;;
47737;SDS011;33502;47.182;27.506;2022-11-24T15:15:59;60.53;;;15.50;;
47737;SDS011;33502;47.182;27.506;2022-11-24T15:18:46;75.90;;;18.25;;
47737;SDS011;33502;47.182;27.506;2022-11-24T15:21:13;53.30;;;17.08;;
47737;SDS011;33502;47.182;27.506;2022-11-24T15:23:40;55.65;;;16.77;;
47737;SDS011;33502;47.182;27.506;2022-11-24T15:28:35;51.33;;;17.50;;
47737;SDS011;33502;47.182;27.506;2022-11-24T15:31:02;62.88;;;16.75;;
47737;SDS011;33502;47.182;27.506;2022-11-24T15:33:30;62.53;;;16.67;;
47737;SDS011;33502;47.182;27.506;2022-11-24T15:35:56;82.18;;;19.17;;
47737;SDS011;33502;47.182;27.506;2022-11-24T15:38:23;109.28;;;20.50;;
47737;SDS011;33502;47.182;27.506;2022-11-24T15:40:50;62.13;;;15.90;;
47737;SDS011;33502;47.182;27.506;2022-11-24T15:45:52;76.55;;;22.58;;
47737;SDS011;33502;47.182;27.506;2022-11-24T15:48:18;77.63;;;24.80;;
47737;SDS011;33502;47.182;27.506;2022-11-24T15:50:44;71.90;;;24.63;;
47737;SDS011;33502;47.182;27.506;2022-11-24T15:53:30;75.53;;;22.35;;
47737;SDS011;33502;47.182;27.506;2022-11-24T15:56:05;82.05;;;19.35;;
47737;SDS011;33502;47.182;27.506;2022-11-24T15:58:46;83.70;;;20.13;;
47737;SDS011;33502;47.182;27.506;2022-11-24T16:01:11;88.85;;;21.25;;
47737;SDS011;33502;47.182;27.506;2022-11-24T16:03:37;81.97;;;25.10;;
47737;SDS011;33502;47.182;27.506;2022-11-24T16:06:03;116.07;;;33.97;;
47737;SDS011;33502;47.182;27.506;2022-11-24T16:08:29;59.45;;;21.95;;
47737;SDS011;33502;47.182;27.506;2022-11-24T16:10:55;56.63;;;20.00;;
47737;SDS011;33502;47.182;27.506;2022-11-24T16:13:21;66.22;;;20.67;;
47737;SDS011;33502;47.182;27.506;2022-11-24T16:15:47;49.35;;;18.77;;
47737;SDS011;33502;47.182;27.506;2022-11-24T16:18:13;64.03;;;19.15;;
47737;SDS011;33502;47.182;27.506;2022-11-24T16:20:39;67.25;;;21.77;;
47737;SDS011;33502;47.182;27.506;2022-11-24T16:23:05;92.20;;;24.83;;
47737;SDS011;33502;47.182;27.506;2022-11-24T16:25:31;76.47;;;22.38;;
47737;SDS011;33502;47.182;27.506;2022-11-24T16:27:57;61.28;;;20.52;;
47737;SDS011;33502;47.182;27.506;2022-11-24T16:30:23;57.10;;;16.42;;
47737;SDS011;33502;47.182;27.506;2022-11-24T16:32:48;130.52;;;26.58;;
47737;SDS011;33502;47.182;27.506;2022-11-24T16:35:14;84.25;;;23.02;;
47737;SDS011;33502;47.182;27.506;2022-11-24T16:37:40;160.77;;;27.60;;
47737;SDS011;33502;47.182;27.506;2022-11-24T16:40:06;138.15;;;29.23;;